createdAt,value
2018-12-18T00:01:09.947Z,25.67
2018-12-18T00:03:41.808Z,27.03
2018-12-18T00:06:13.812Z,26.83
2018-12-18T00:08:45.937Z,33.40
2018-12-18T00:11:19.031Z,30.17
2018-12-18T00:13:51.048Z,32.53
2018-12-18T00:16:23.125Z,35.05
2018-12-18T00:18:55.087Z,32.63
2018-12-18T00:21:27.021Z,31.13
2018-12-18T00:23:58.988Z,30.83
2018-12-18T00:26:30.890Z,37.97
2018-12-18T00:29:03.602Z,33.97
2018-12-18T00:31:37.394Z,40.13
2018-12-18T00:34:09.228Z,35.70
2018-12-18T00:36:41.125Z,40.57
2018-12-18T00:39:13.099Z,39.50
2018-12-18T00:41:44.998Z,38.53
2018-12-18T00:44:17.000Z,30.20
2018-12-18T00:46:48.988Z,39.57
2018-12-18T00:49:20.952Z,40.85
2018-12-18T00:51:52.907Z,30.62
2018-12-18T00:54:24.968Z,28.92
2018-12-18T00:56:57.015Z,39.08
2018-12-18T00:59:28.922Z,38.23
2018-12-18T01:02:01.019Z,39.20
2018-12-18T01:04:32.986Z,36.90
2018-12-18T01:07:04.987Z,37.67
2018-12-18T01:09:37.057Z,37.80
2018-12-18T01:12:08.933Z,39.10
2018-12-18T01:14:40.837Z,36.83
2018-12-18T01:17:12.901Z,40.70
2018-12-18T01:19:44.874Z,43.17
2018-12-18T01:22:17.094Z,53.67
2018-12-18T01:24:50.765Z,42.73
2018-12-18T01:27:22.808Z,48.30
2018-12-18T01:29:54.799Z,47.37
2018-12-18T01:32:26.785Z,45.53
2018-12-18T01:34:58.668Z,47.58
2018-12-18T01:37:30.597Z,48.10
2018-12-18T01:40:02.382Z,50.08
2018-12-18T01:42:34.320Z,52.40
2018-12-18T01:45:06.664Z,52.23
2018-12-18T01:47:38.717Z,49.97
2018-12-18T01:50:10.850Z,50.67
2018-12-18T01:52:42.707Z,58.10
2018-12-18T01:55:14.504Z,54.67
2018-12-18T01:57:46.670Z,58.60
2018-12-18T02:00:18.641Z,58.80
2018-12-18T02:02:50.651Z,65.40
2018-12-18T02:05:22.659Z,62.73
2018-12-18T02:07:54.563Z,78.50
2018-12-18T02:10:26.781Z,66.57
2018-12-18T02:12:58.805Z,72.87
2018-12-18T02:15:30.787Z,78.10
2018-12-18T02:18:02.896Z,70.22
2018-12-18T02:20:34.997Z,76.67
2018-12-18T02:23:06.974Z,76.73
2018-12-18T02:25:38.939Z,92.43
2018-12-18T02:28:10.978Z,87.87
2018-12-18T02:30:42.905Z,77.53
2018-12-18T02:33:14.971Z,84.63
2018-12-18T02:35:46.866Z,83.27
2018-12-18T02:38:18.943Z,86.10
2018-12-18T02:40:50.984Z,86.67
2018-12-18T02:43:22.984Z,86.40
2018-12-18T02:45:54.917Z,61.05
2018-12-18T02:48:26.998Z,60.57
2018-12-18T02:50:59.020Z,61.60
2018-12-18T02:53:31.007Z,62.63
2018-12-18T02:56:02.915Z,70.20
2018-12-18T02:58:34.879Z,43.47
2018-12-18T03:01:06.622Z,58.70
2018-12-18T03:03:38.763Z,61.97
2018-12-18T03:06:10.853Z,56.00
2018-12-18T03:08:43.065Z,56.17
2018-12-18T03:11:15.322Z,59.47
2018-12-18T03:13:48.584Z,44.00
2018-12-18T03:16:21.281Z,43.38
2018-12-18T03:18:53.239Z,46.37
2018-12-18T03:21:25.299Z,33.53
2018-12-18T03:24:00.712Z,38.17
2018-12-18T03:26:34.785Z,42.80
2018-12-18T03:29:07.652Z,39.90
2018-12-18T03:31:40.438Z,41.30
2018-12-18T03:34:14.264Z,44.77
2018-12-18T03:36:47.395Z,49.53
2018-12-18T03:39:21.625Z,43.40
2018-12-18T03:41:54.655Z,49.33
2018-12-18T03:44:27.645Z,38.53
2018-12-18T03:47:00.433Z,40.27
2018-12-18T03:49:32.953Z,43.00
2018-12-18T03:52:05.035Z,34.03
2018-12-18T03:54:37.280Z,31.87
2018-12-18T03:57:09.179Z,38.13
2018-12-18T03:59:41.111Z,32.13
2018-12-18T04:02:12.911Z,28.33
2018-12-18T04:04:44.891Z,32.03
2018-12-18T04:07:16.768Z,37.05
2018-12-18T04:09:48.729Z,26.70
2018-12-18T04:12:20.704Z,35.07
2018-12-18T04:14:53.000Z,29.83
2018-12-18T04:17:25.040Z,26.53
2018-12-18T04:19:57.061Z,21.65
2018-12-18T04:22:29.220Z,28.83
2018-12-18T04:25:01.028Z,30.25
2018-12-18T04:27:33.028Z,27.13
2018-12-18T04:30:05.769Z,22.60
2018-12-18T04:32:37.945Z,22.50
2018-12-18T04:35:10.002Z,30.37
2018-12-18T04:37:42.100Z,24.17
2018-12-18T04:40:14.177Z,24.60
2018-12-18T04:42:46.280Z,33.97
2018-12-18T04:45:18.280Z,29.53
2018-12-18T04:47:50.333Z,20.50
2018-12-18T04:50:22.258Z,32.45
2018-12-18T04:52:54.281Z,27.97
2018-12-18T04:55:26.545Z,20.40
2018-12-18T04:57:58.480Z,15.72
2018-12-18T05:00:30.543Z,17.70
2018-12-18T05:03:08.751Z,20.83
2018-12-18T05:05:45.274Z,23.12
2018-12-18T05:08:17.180Z,23.40
2018-12-18T05:10:52.898Z,17.30
2018-12-18T05:13:25.437Z,27.93
2018-12-18T05:15:58.564Z,18.02
2018-12-18T05:18:30.758Z,14.57
2018-12-18T05:21:03.705Z,17.33
2018-12-18T05:23:35.995Z,27.77
2018-12-18T05:26:08.183Z,21.13
2018-12-18T05:28:40.499Z,22.40
2018-12-18T05:31:12.759Z,26.47
2018-12-18T05:33:45.136Z,22.80
2018-12-18T05:36:17.910Z,22.03
2018-12-18T05:38:50.044Z,19.13
2018-12-18T05:41:23.163Z,19.73
2018-12-18T05:43:54.937Z,12.47
2018-12-18T05:46:27.194Z,12.70
2018-12-18T05:48:59.089Z,16.53
2018-12-18T05:51:31.015Z,14.33
2018-12-18T05:54:03.356Z,16.53
2018-12-18T05:56:35.163Z,19.60
2018-12-18T05:59:07.938Z,20.97
2018-12-18T06:01:39.921Z,15.07
2018-12-18T06:04:11.997Z,13.87
2018-12-18T06:06:43.970Z,26.93
2018-12-18T06:09:15.831Z,15.83
2018-12-18T06:11:47.799Z,19.37
2018-12-18T06:14:19.594Z,15.17
2018-12-18T06:16:51.641Z,12.83
2018-12-18T06:19:23.543Z,20.63
2018-12-18T06:21:55.498Z,12.37
2018-12-18T06:27:02.660Z,14.55
2018-12-18T06:29:34.676Z,11.45
2018-12-18T06:32:06.656Z,15.20
2018-12-18T06:34:38.706Z,14.15
2018-12-18T06:37:10.773Z,19.62
2018-12-18T06:39:42.659Z,12.07
2018-12-18T06:42:14.571Z,10.13
2018-12-18T06:44:46.578Z,15.37
2018-12-18T06:49:54.735Z,16.43
2018-12-18T06:52:27.914Z,10.23
2018-12-18T06:55:00.984Z,19.00
2018-12-18T06:57:33.934Z,14.27
2018-12-18T07:00:09.311Z,14.23
2018-12-18T07:02:42.119Z,14.10
2018-12-18T07:05:16.900Z,8.03
2018-12-18T07:08:04.916Z,14.47
2018-12-18T07:14:11.517Z,15.87
2018-12-18T07:16:43.443Z,11.03
2018-12-18T07:19:15.478Z,13.20
2018-12-18T07:21:47.341Z,10.47
2018-12-18T07:24:19.310Z,8.90
2018-12-18T07:26:51.121Z,12.33
2018-12-18T07:29:23.255Z,11.47
2018-12-18T07:31:55.158Z,11.13
2018-12-18T07:34:33.258Z,17.40
2018-12-18T07:37:01.597Z,11.37
2018-12-18T07:39:33.697Z,16.73
2018-12-18T07:42:05.653Z,12.10
2018-12-18T07:44:37.419Z,12.93
2018-12-18T07:47:09.338Z,15.20
2018-12-18T07:49:41.486Z,18.07
2018-12-18T07:52:13.534Z,13.33
2018-12-18T07:54:51.547Z,13.53
2018-12-18T07:57:29.781Z,15.20
2018-12-18T08:00:01.622Z,14.70
2018-12-18T08:02:33.601Z,16.67
2018-12-18T08:05:05.804Z,15.73
2018-12-18T08:07:38.243Z,16.70
2018-12-18T08:10:10.463Z,17.47
2018-12-18T08:12:42.520Z,15.50
2018-12-18T08:15:14.416Z,16.97
2018-12-18T08:17:46.453Z,17.13
2018-12-18T08:20:18.258Z,14.60
2018-12-18T08:22:50.207Z,16.17
2018-12-18T08:25:22.152Z,18.23
2018-12-18T08:27:55.079Z,20.20
2018-12-18T08:30:26.958Z,15.53
2018-12-18T08:32:58.866Z,15.43
2018-12-18T08:35:36.290Z,13.83
2018-12-18T08:38:05.185Z,17.50
2018-12-18T08:40:37.203Z,23.40
2018-12-18T08:43:09.175Z,18.40
2018-12-18T08:45:41.200Z,20.70
2018-12-18T08:48:13.069Z,29.57
2018-12-18T08:51:00.566Z,25.93
2018-12-18T08:53:32.665Z,37.98
2018-12-18T08:56:04.772Z,34.30
2018-12-18T08:58:36.848Z,27.97
2018-12-18T09:01:08.853Z,41.30
2018-12-18T09:03:40.918Z,37.27
2018-12-18T09:06:12.890Z,43.13
2018-12-18T09:08:44.896Z,39.03
2018-12-18T09:11:17.097Z,38.60
2018-12-18T09:13:49.054Z,35.00
2018-12-18T09:16:20.921Z,34.33
2018-12-18T09:18:52.872Z,35.97
2018-12-18T09:21:24.745Z,38.77
2018-12-18T09:23:56.723Z,32.53
2018-12-18T09:26:28.748Z,33.30
2018-12-18T09:29:00.663Z,32.83
2018-12-18T09:31:32.711Z,34.75
2018-12-18T09:34:04.888Z,34.20
2018-12-18T09:36:36.823Z,43.90
2018-12-18T09:39:09.455Z,41.23
2018-12-18T09:41:41.634Z,35.03
2018-12-18T09:44:13.520Z,36.07
2018-12-18T09:46:45.588Z,31.53
2018-12-18T09:49:17.554Z,30.63
2018-12-18T09:51:49.456Z,34.57
2018-12-18T09:54:21.581Z,34.47
2018-12-18T09:56:53.476Z,35.00
2018-12-18T09:59:25.408Z,35.43
2018-12-18T10:01:58.263Z,34.27
2018-12-18T10:04:30.653Z,33.30
2018-12-18T10:07:02.551Z,37.20
2018-12-18T10:09:34.557Z,37.10
2018-12-18T10:12:06.451Z,42.40
2018-12-18T10:14:38.259Z,36.07
2018-12-18T10:17:10.096Z,37.20
2018-12-18T10:19:42.313Z,41.63
2018-12-18T10:22:15.470Z,40.83
2018-12-18T10:24:47.684Z,39.43
2018-12-18T10:27:19.684Z,39.53
2018-12-18T10:29:51.796Z,48.50
2018-12-18T10:32:23.739Z,42.50
2018-12-18T10:34:55.827Z,44.80
2018-12-18T10:37:27.837Z,43.97
2018-12-18T10:39:59.953Z,46.97
2018-12-18T10:42:32.223Z,36.40
2018-12-18T10:45:04.872Z,46.70
2018-12-18T10:47:36.841Z,40.93
2018-12-18T10:50:08.807Z,42.43
2018-12-18T10:52:40.751Z,37.67
2018-12-18T10:55:12.682Z,37.93
2018-12-18T10:57:44.523Z,39.47
2018-12-18T11:00:16.642Z,38.50
2018-12-18T11:02:48.586Z,36.43
2018-12-18T11:05:20.606Z,36.80
2018-12-18T11:07:52.593Z,44.10
2018-12-18T11:10:26.403Z,34.80
2018-12-18T11:12:58.512Z,40.87
2018-12-18T11:15:30.540Z,41.60
2018-12-18T11:18:02.240Z,40.67
2018-12-18T11:20:34.161Z,39.57
2018-12-18T11:23:06.092Z,34.70
2018-12-18T11:25:38.325Z,36.83
2018-12-18T11:28:10.315Z,42.83
2018-12-18T11:30:42.270Z,36.30
2018-12-18T11:33:14.939Z,32.47
2018-12-18T11:35:46.883Z,38.87
2018-12-18T11:38:18.849Z,41.73
2018-12-18T11:40:50.833Z,44.20
2018-12-18T11:43:23.183Z,36.63
2018-12-18T11:45:56.058Z,40.40
2018-12-18T11:48:28.095Z,31.30
2018-12-18T11:51:00.081Z,30.10
2018-12-18T11:53:32.565Z,31.48
2018-12-18T11:56:05.299Z,37.97
2018-12-18T11:58:37.331Z,36.30
2018-12-18T12:01:09.273Z,30.80
2018-12-18T12:03:41.230Z,33.53
2018-12-18T12:06:13.323Z,27.73
2018-12-18T12:08:46.110Z,27.60
2018-12-18T12:11:19.431Z,23.60
2018-12-18T12:13:52.031Z,29.67
2018-12-18T12:16:25.692Z,27.13
2018-12-18T12:18:57.799Z,30.73
2018-12-18T12:21:29.812Z,29.77
2018-12-18T12:24:02.187Z,26.60
2018-12-18T12:26:35.231Z,33.73
2018-12-18T12:29:08.749Z,33.20
2018-12-18T12:31:41.435Z,37.33
2018-12-18T12:34:14.310Z,35.97
2018-12-18T12:36:47.447Z,38.37
2018-12-18T12:39:21.070Z,40.48
2018-12-18T12:41:54.738Z,45.20
2018-12-18T12:44:27.491Z,38.00
2018-12-18T12:47:00.100Z,42.13
2018-12-18T12:49:33.656Z,44.52
2018-12-18T12:52:06.883Z,41.73
2018-12-18T12:54:40.231Z,46.47
2018-12-18T12:57:13.572Z,47.15
2018-12-18T12:59:46.105Z,40.50
2018-12-18T13:02:18.868Z,38.07
2018-12-18T13:04:52.094Z,45.98
2018-12-18T13:07:26.496Z,41.93
2018-12-18T13:09:59.353Z,35.83
2018-12-18T13:12:32.346Z,39.48
2018-12-18T13:15:04.487Z,33.30
2018-12-18T13:17:37.538Z,32.30
2018-12-18T13:20:10.751Z,40.80
2018-12-18T13:22:44.098Z,42.97
2018-12-18T13:25:17.655Z,34.00
2018-12-18T13:27:51.403Z,37.43
2018-12-18T13:30:24.921Z,29.93
2018-12-18T13:32:57.806Z,39.57
2018-12-18T13:35:31.382Z,42.67
2018-12-18T13:38:04.696Z,35.43
2018-12-18T13:40:37.055Z,33.87
2018-12-18T13:43:10.369Z,35.20
2018-12-18T13:45:44.592Z,36.27
2018-12-18T13:48:17.017Z,36.42
2018-12-18T13:50:49.232Z,33.10
2018-12-18T13:53:21.876Z,39.85
2018-12-18T13:55:54.404Z,51.13
2018-12-18T13:58:26.504Z,41.40
2018-12-18T14:01:00.084Z,34.33
2018-12-18T14:03:33.034Z,39.27
2018-12-18T14:06:05.557Z,45.83
2018-12-18T14:08:37.604Z,45.45
2018-12-18T14:11:10.819Z,45.23
2018-12-18T14:13:42.870Z,45.30
2018-12-18T14:16:15.046Z,43.50
2018-12-18T14:18:47.418Z,52.00
2018-12-18T14:21:19.659Z,44.53
2018-12-18T14:23:52.490Z,58.30
2018-12-18T14:26:24.868Z,41.27
2018-12-18T14:28:56.987Z,46.02
2018-12-18T14:31:29.633Z,47.33
2018-12-18T14:34:01.882Z,42.57
2018-12-18T14:36:34.170Z,45.10
2018-12-18T14:39:07.667Z,45.20
2018-12-18T14:41:39.807Z,45.97
2018-12-18T14:44:11.643Z,55.53
2018-12-18T14:46:43.416Z,47.43
2018-12-18T14:49:16.070Z,56.63
2018-12-18T14:51:49.065Z,49.27
2018-12-18T14:54:21.116Z,56.03
2018-12-18T14:56:53.036Z,54.07
2018-12-18T14:59:25.064Z,61.33
2018-12-18T15:01:57.128Z,63.70
2018-12-18T15:04:29.208Z,56.07
2018-12-18T15:07:03.041Z,54.67
2018-12-18T15:09:35.243Z,62.10
2018-12-18T15:12:07.354Z,54.87
2018-12-18T15:14:39.240Z,66.87
2018-12-18T15:17:11.151Z,62.63
2018-12-18T15:19:43.201Z,58.80
2018-12-18T15:22:15.147Z,59.40
2018-12-18T15:24:47.111Z,64.40
2018-12-18T15:27:19.128Z,64.27
2018-12-18T15:29:51.076Z,59.27
2018-12-18T15:32:23.081Z,69.70
2018-12-18T15:34:55.031Z,74.93
2018-12-18T15:37:27.069Z,61.47
2018-12-18T15:39:59.097Z,59.37
2018-12-18T15:42:31.180Z,67.80
2018-12-18T15:45:03.240Z,72.90
2018-12-18T15:47:35.295Z,65.83
2018-12-18T15:50:08.130Z,77.50
2018-12-18T15:52:40.930Z,63.27
2018-12-18T15:55:13.117Z,67.87
2018-12-18T15:57:45.945Z,73.97
2018-12-18T16:00:17.912Z,66.40
2018-12-18T16:02:49.980Z,64.72
2018-12-18T16:05:22.100Z,71.67
2018-12-18T16:07:54.078Z,66.57
2018-12-18T16:10:26.033Z,69.37
2018-12-18T16:12:58.323Z,71.37
2018-12-18T16:15:30.352Z,68.52
2018-12-18T16:18:02.440Z,62.93
2018-12-18T16:20:34.438Z,75.77
2018-12-18T16:23:06.454Z,66.57
2018-12-18T16:25:38.448Z,71.37
2018-12-18T16:28:10.609Z,70.33
2018-12-18T16:30:42.765Z,66.33
2018-12-18T16:33:14.775Z,58.60
2018-12-18T16:35:46.838Z,68.37
2018-12-18T16:38:18.808Z,57.98
2018-12-18T16:40:50.701Z,55.75
2018-12-18T16:43:22.642Z,62.27
2018-12-18T16:45:54.748Z,58.53
2018-12-18T16:48:27.283Z,61.17
2018-12-18T16:50:59.316Z,54.77
2018-12-18T16:53:31.234Z,65.70
2018-12-18T16:56:03.418Z,55.92
2018-12-18T16:58:35.722Z,53.33
2018-12-18T17:01:08.009Z,58.50
2018-12-18T17:03:40.174Z,52.53
2018-12-18T17:06:12.343Z,46.93
2018-12-18T17:08:44.404Z,48.38
2018-12-18T17:11:17.205Z,46.70
2018-12-18T17:13:49.241Z,56.73
2018-12-18T17:16:21.431Z,51.23
2018-12-18T17:18:53.311Z,50.37
2018-12-18T17:21:25.430Z,50.07
2018-12-18T17:23:57.527Z,50.03
2018-12-18T17:26:29.359Z,51.03
2018-12-18T17:29:01.419Z,43.73
2018-12-18T17:31:33.322Z,45.43
2018-12-18T17:34:05.308Z,50.70
2018-12-18T17:36:38.008Z,43.02
2018-12-18T17:39:10.659Z,46.45
2018-12-18T17:41:42.822Z,48.50
2018-12-18T17:44:15.333Z,62.33
2018-12-18T17:46:47.315Z,56.27
2018-12-18T17:49:19.438Z,46.50
2018-12-18T17:51:51.510Z,45.80
2018-12-18T17:54:23.800Z,49.20
2018-12-18T17:56:55.672Z,47.07
2018-12-18T17:59:27.657Z,50.90
2018-12-18T18:01:59.676Z,49.13
2018-12-18T18:04:31.760Z,60.43
2018-12-18T18:07:03.788Z,49.13
2018-12-18T18:09:35.832Z,52.33
2018-12-18T18:12:07.860Z,56.17
2018-12-18T18:14:39.859Z,48.63
2018-12-18T18:17:11.597Z,56.28
2018-12-18T18:19:43.665Z,52.13
2018-12-18T18:22:15.537Z,51.40
2018-12-18T18:24:47.431Z,50.03
2018-12-18T18:27:19.381Z,51.97
2018-12-18T18:29:51.229Z,49.87
2018-12-18T18:32:23.201Z,48.07
2018-12-18T18:34:55.221Z,50.10
2018-12-18T18:37:27.131Z,48.53
2018-12-18T18:39:59.261Z,52.98
2018-12-18T18:42:31.278Z,48.17
2018-12-18T18:45:03.172Z,55.17
2018-12-18T18:47:35.279Z,51.37
2018-12-18T18:50:08.481Z,50.00
2018-12-18T18:52:40.483Z,52.93
2018-12-18T18:55:12.446Z,47.80
2018-12-18T18:57:44.307Z,60.20
2018-12-18T19:00:15.981Z,47.58
2018-12-18T19:02:48.021Z,49.70
2018-12-18T19:05:20.066Z,45.33
2018-12-18T19:07:56.422Z,51.33
2018-12-18T19:10:26.433Z,46.73
2018-12-18T19:12:58.290Z,53.67
2018-12-18T19:15:30.292Z,45.93
2018-12-18T19:18:02.211Z,53.47
2018-12-18T19:20:34.353Z,52.00
2018-12-18T19:23:06.186Z,48.70
2018-12-18T19:25:38.086Z,43.97
2018-12-18T19:28:10.016Z,52.40
2018-12-18T19:30:41.869Z,45.10
2018-12-18T19:33:13.817Z,50.67
2018-12-18T19:35:45.695Z,49.80
2018-12-18T19:38:17.791Z,53.27
2018-12-18T19:40:49.453Z,43.08
2018-12-18T19:43:21.570Z,46.20
2018-12-18T19:45:53.714Z,47.10
2018-12-18T19:48:25.743Z,44.50
2018-12-18T19:50:57.600Z,46.53
2018-12-18T19:53:29.623Z,47.35
2018-12-18T19:56:01.557Z,42.78
2018-12-18T19:58:33.572Z,47.97
2018-12-18T20:01:05.586Z,75.13
2018-12-18T20:03:37.622Z,50.43
2018-12-18T20:06:09.555Z,48.33
2018-12-18T20:08:41.583Z,51.90
2018-12-18T20:11:13.546Z,42.97
2018-12-18T20:13:45.516Z,56.53
2018-12-18T20:16:17.439Z,48.37
2018-12-18T20:18:49.280Z,47.33
2018-12-18T20:21:21.185Z,46.15
2018-12-18T20:23:53.343Z,46.63
2018-12-18T20:26:25.166Z,44.00
2018-12-18T20:28:57.094Z,44.73
2018-12-18T20:31:29.360Z,42.63
2018-12-18T20:34:01.637Z,39.63
2018-12-18T20:36:33.783Z,48.83
2018-12-18T20:39:07.891Z,49.33
2018-12-18T20:41:40.067Z,43.23
2018-12-18T20:44:12.136Z,46.07
2018-12-18T20:46:44.278Z,56.40
2018-12-18T20:49:16.253Z,39.93
2018-12-18T20:51:48.072Z,43.57
2018-12-18T20:54:20.125Z,44.73
2018-12-18T20:56:52.335Z,48.93
2018-12-18T20:59:24.307Z,40.70
2018-12-18T21:01:56.466Z,45.40
2018-12-18T21:04:28.522Z,50.13
2018-12-18T21:07:00.544Z,44.88
2018-12-18T21:09:32.413Z,39.83
2018-12-18T21:12:04.419Z,51.20
2018-12-18T21:14:38.070Z,45.77
2018-12-18T21:17:10.180Z,46.87
2018-12-18T21:19:42.158Z,47.37
2018-12-18T21:22:14.050Z,49.10
2018-12-18T21:24:46.282Z,45.37
2018-12-18T21:27:18.604Z,48.83
2018-12-18T21:29:50.725Z,48.77
2018-12-18T21:32:22.674Z,51.90
2018-12-18T21:34:54.713Z,58.90
2018-12-18T21:37:26.740Z,46.77
2018-12-18T21:39:58.822Z,51.40
2018-12-18T21:42:31.088Z,56.67
2018-12-18T21:45:03.171Z,49.23
2018-12-18T21:47:35.196Z,49.03
2018-12-18T21:50:07.755Z,54.07
2018-12-18T21:52:39.782Z,52.10
2018-12-18T21:55:11.650Z,55.70
2018-12-18T21:57:43.544Z,47.77
2018-12-18T22:00:15.502Z,54.40
2018-12-18T22:02:47.495Z,59.60
2018-12-18T22:05:19.194Z,46.37
2018-12-18T22:07:51.122Z,54.47
2018-12-18T22:10:23.055Z,49.87
2018-12-18T22:12:55.057Z,55.08
2018-12-18T22:15:27.063Z,54.93
2018-12-18T22:17:59.074Z,59.90
2018-12-18T22:20:30.952Z,55.70
2018-12-18T22:23:02.938Z,59.77
2018-12-18T22:25:35.072Z,56.13
2018-12-18T22:28:07.027Z,54.67
2018-12-18T22:30:38.990Z,60.43
2018-12-18T22:33:11.054Z,121.80
2018-12-18T22:35:43.207Z,141.33
2018-12-18T22:38:15.124Z,108.23
2018-12-18T22:40:46.968Z,87.63
2018-12-18T22:43:18.819Z,82.17
2018-12-18T22:45:51.106Z,73.90
2018-12-18T22:48:22.989Z,68.77
2018-12-18T22:50:55.127Z,65.47
2018-12-18T22:53:27.136Z,81.13
2018-12-18T22:55:59.016Z,54.60
2018-12-18T22:58:30.948Z,62.67
2018-12-18T23:01:04.019Z,69.13
2018-12-18T23:03:35.998Z,74.37
2018-12-18T23:06:08.048Z,75.33
2018-12-18T23:08:40.270Z,56.00
2018-12-18T23:11:12.263Z,66.77
2018-12-18T23:13:44.241Z,53.73
2018-12-18T23:16:16.919Z,58.07
2018-12-18T23:18:48.708Z,54.75
2018-12-18T23:21:20.785Z,66.80
2018-12-18T23:23:52.468Z,64.45
2018-12-18T23:26:24.222Z,57.83
2018-12-18T23:28:56.125Z,61.20
2018-12-18T23:31:28.004Z,53.53
2018-12-18T23:34:00.022Z,63.07
2018-12-18T23:36:32.095Z,69.30
2018-12-18T23:39:04.469Z,60.73
2018-12-18T23:41:36.815Z,59.30
2018-12-18T23:44:08.930Z,66.73
2018-12-18T23:46:40.926Z,85.37
2018-12-18T23:49:12.951Z,63.67
2018-12-18T23:51:44.997Z,55.03
2018-12-18T23:54:16.999Z,72.80
2018-12-18T23:56:49.979Z,67.40
2018-12-18T23:59:22.911Z,69.35
